Time;durP1;ratioP1;P1;durP2;ratioP2;P2;SDS_P1;SDS_P2;PMS_P1;PMS_P2;Temp;Humidity;BMP_temperature;BMP_pressure;BME280_temperature;BME280_humidity;BME280_pressure;Samples;Min_cycle;Max_cycle;Signal;HPM_P1;HPM_P2
2022/04/18 00:01:39;;;;;;;1.40;1.30;;;;;;;4.22;64.37;94525.81;5017990;28;20207;-67
2022/04/18 00:04:06;;;;;;;1.67;1.52;;;;;;;4.26;64.50;94517.78;5017740;28;20188;-67
2022/04/18 00:06:40;;;;;;;1.90;1.80;;;;;;;4.15;64.62;94520.06;5018110;28;20324;-67
2022/04/18 00:09:08;;;;;;;1.60;1.13;;;;;;;4.14;64.46;94515.72;5001085;28;20195;-67
2022/04/18 00:11:36;;;;;;;1.50;1.40;;;;;;;4.22;64.02;94512.16;5000660;28;20265;-67
2022/04/18 00:14:04;;;;;;;1.40;1.30;;;;;;;4.34;63.49;94520.47;5017428;28;20187;-66
2022/04/18 00:16:31;;;;;;;1.60;1.50;;;;;;;4.30;63.12;94518.72;4999904;28;20195;-67
2022/04/18 00:18:59;;;;;;;1.23;1.20;;;;;;;4.29;63.04;94520.66;5016767;28;20197;-66
2022/04/18 00:21:27;;;;;;;1.30;1.30;;;;;;;4.19;62.84;94528.41;5017384;28;20563;-66
2022/04/18 00:24:00;;;;;;;1.50;1.40;;;;;;;4.00;63.39;94526.03;5017687;28;20261;-65
2022/04/18 00:26:28;;;;;;;1.33;1.20;;;;;;;4.01;63.34;94511.25;5017290;28;20508;-66
2022/04/18 00:28:58;;;;;;;1.75;1.60;;;;;;;4.04;63.12;94519.59;5000308;28;20294;-66
2022/04/18 00:31:27;;;;;;;1.50;1.40;;;;;;;4.09;63.00;94510.44;5016383;28;20202;-66
2022/04/18 00:33:53;;;;;;;1.55;1.42;;;;;;;4.12;63.03;94509.78;5000314;28;20194;-66
2022/04/18 00:36:22;;;;;;;1.50;1.40;;;;;;;4.21;63.26;94507.84;4999979;28;20195;-66
2022/04/18 00:38:49;;;;;;;1.40;1.30;;;;;;;4.19;62.65;94510.09;5000202;28;20530;-65
2022/04/18 00:41:18;;;;;;;1.50;1.40;;;;;;;4.16;62.83;94507.19;5016476;28;20309;-66
2022/04/18 00:43:48;;;;;;;1.42;1.33;;;;;;;4.18;62.50;94505.75;5016348;28;20191;-66
2022/04/18 00:46:18;;;;;;;2.13;1.90;;;;;;;4.27;62.55;94505.72;5016912;28;20183;-66
2022/04/18 00:48:47;;;;;;;1.92;1.75;;;;;;;4.28;62.07;94499.13;5017170;28;20199;-66
2022/04/18 00:51:17;;;;;;;1.50;1.40;;;;;;;4.31;62.13;94496.53;5015952;28;20203;-66
2022/04/18 00:53:45;;;;;;;1.50;1.42;;;;;;;4.24;61.44;94490.78;5015919;28;20298;-66
2022/04/18 00:56:15;;;;;;;1.50;1.40;;;;;;;4.23;62.54;94502.84;4999671;28;20199;-65
2022/04/18 00:58:46;;;;;;;1.52;1.42;;;;;;;4.20;61.91;94494.50;5016733;28;20188;-65
2022/04/18 01:01:15;;;;;;;1.67;1.55;;;;;;;4.11;62.39;94500.00;5016414;28;20758;-65
2022/04/18 01:03:43;;;;;;;1.60;1.50;;;;;;;4.05;62.20;94499.38;5016440;28;20611;-66
2022/04/18 01:06:12;;;;;;;2.05;1.70;;;;;;;4.01;62.81;94503.06;5015516;28;20203;-66
2022/04/18 01:08:42;;;;;;;1.65;1.55;;;;;;;4.00;62.43;94496.03;5016888;28;20183;-66
2022/04/18 01:11:13;;;;;;;1.50;1.40;;;;;;;4.13;62.62;94489.53;5015803;28;20199;-66
2022/04/18 01:13:43;;;;;;;1.60;1.50;;;;;;;4.26;62.24;94485.00;5016678;28;20196;-66
2022/04/18 01:16:15;;;;;;;1.60;1.50;;;;;;;4.30;61.85;94488.69;5016098;28;20197;-65
2022/04/18 01:18:48;;;;;;;1.50;1.40;;;;;;;4.32;61.86;94489.16;5015646;28;20207;-66
2022/04/18 01:21:19;;;;;;;1.48;1.38;;;;;;;4.28;61.65;94488.19;4999036;28;20308;-65
2022/04/18 01:23:48;;;;;;;1.65;1.55;;;;;;;4.17;62.14;94487.75;5016166;28;20571;-66
2022/04/18 01:29:01;;;;;;;1.65;1.55;;;;;;;4.10;62.45;94484.72;5016279;28;20185;-66
2022/04/18 01:31:31;;;;;;;1.50;1.40;;;;;;;4.02;62.63;94474.66;4998955;28;20257;-66
2022/04/18 01:33:58;;;;;;;1.38;1.38;;;;;;;3.99;62.82;94467.91;5015880;28;20219;-66
2022/04/18 01:36:27;;;;;;;1.55;1.45;;;;;;;4.14;62.83;94473.97;5015811;28;20633;-66
2022/04/18 01:38:55;;;;;;;1.70;1.60;;;;;;;4.01;62.64;94464.88;5015626;28;20199;-66
2022/04/18 01:41:24;;;;;;;1.85;1.40;;;;;;;4.07;63.24;94461.66;5015359;28;20693;-66
2022/04/18 01:43:53;;;;;;;1.42;1.42;;;;;;;4.17;63.12;94465.91;4998432;28;20211;-66
2022/04/18 01:46:20;;;;;;;1.80;1.63;;;;;;;4.21;62.75;94457.88;4998397;28;20542;-66
2022/04/18 01:48:51;;;;;;;1.90;1.80;;;;;;;4.06;62.99;94451.84;5015941;28;20191;-66
2022/04/18 01:51:19;;;;;;;1.80;1.70;;;;;;;4.16;62.90;94453.41;5015724;28;20230;-66
2022/04/18 01:53:49;;;;;;;1.90;1.80;;;;;;;4.24;62.58;94447.09;5015573;28;20544;-66
2022/04/18 01:56:17;;;;;;;1.90;1.80;;;;;;;4.29;62.24;94452.41;5014645;28;20203;-66
2022/04/18 01:58:44;;;;;;;1.58;1.48;;;;;;;4.17;62.47;94443.28;5015800;28;20195;-66
2022/04/18 02:01:15;;;;;;;1.85;1.75;;;;;;;4.04;62.60;94439.66;5015812;28;20290;-66
2022/04/18 02:03:43;;;;;;;1.75;1.65;;;;;;;3.84;63.00;94444.69;5014740;28;20207;-67
2022/04/18 02:06:14;;;;;;;1.65;1.55;;;;;;;3.77;63.16;94441.66;5015688;28;20183;-66
2022/04/18 02:08:42;;;;;;;1.50;1.40;;;;;;;3.80;63.49;94441.00;4998326;28;20297;-65
2022/04/18 02:11:10;;;;;;;1.20;1.20;;;;;;;3.63;63.48;94443.78;5015537;28;20195;-65
2022/04/18 02:13:38;;;;;;;1.40;1.30;;;;;;;3.55;63.71;94436.41;5014810;28;20209;-66
2022/04/18 02:16:05;;;;;;;1.60;1.50;;;;;;;3.57;64.03;94434.97;5014624;28;20215;-65
2022/04/18 02:18:32;;;;;;;1.60;1.50;;;;;;;3.60;64.03;94431.59;5014903;28;20202;-65
2022/04/18 02:20:59;;;;;;;1.40;1.40;;;;;;;3.77;63.78;94424.50;4981996;28;20670;-66
2022/04/18 02:23:27;;;;;;;1.70;1.60;;;;;;;3.62;64.07;94425.81;5015760;28;20206;-66
2022/04/18 02:25:55;;;;;;;1.77;1.67;;;;;;;3.58;63.76;94431.13;5014976;28;20194;-66
2022/04/18 02:28:23;;;;;;;1.77;1.67;;;;;;;3.50;64.24;94422.97;5015503;28;20195;-65
2022/04/18 02:30:51;;;;;;;2.20;2.10;;;;;;;3.40;64.48;94423.28;5015106;28;20187;-65
2022/04/18 02:33:19;;;;;;;1.90;1.80;;;;;;;3.43;64.73;94423.44;5015525;28;20277;-65
2022/04/18 02:35:48;;;;;;;1.70;1.60;;;;;;;3.51;64.56;94419.91;5015381;28;20187;-65
2022/04/18 02:38:16;;;;;;;1.88;1.77;;;;;;;3.58;64.82;94427.59;5014276;28;20202;-67
2022/04/18 02:40:45;;;;;;;1.55;1.45;;;;;;;3.60;64.36;94428.09;5001912;28;20202;-67
2022/04/18 02:43:13;;;;;;;1.92;1.55;;;;;;;3.56;64.54;94419.75;5019502;28;20195;-66
2022/04/18 02:45:45;;;;;;;1.60;1.50;;;;;;;3.75;64.14;94421.31;5019267;28;20614;-66
2022/04/18 02:48:15;;;;;;;1.90;1.80;;;;;;;3.73;64.12;94421.59;5001646;28;20294;-66
2022/04/18 02:50:46;;;;;;;1.60;1.50;;;;;;;3.67;64.09;94417.47;5002310;28;20218;-67
2022/04/18 02:53:14;;;;;;;1.45;1.33;;;;;;;3.67;64.09;94417.47;5019214;28;20265;-66
2022/04/18 02:55:42;;;;;;;2.15;1.98;;;;;;;3.50;64.59;94414.78;5019107;28;20184;-67
2022/04/18 02:58:10;;;;;;;2.70;2.50;;;;;;;3.45;64.89;94426.66;5019038;28;20195;-66
2022/04/18 03:00:38;;;;;;;2.80;2.60;;;;;;;3.52;65.19;94417.97;5017927;28;20585;-67
2022/04/18 03:03:08;;;;;;;2.75;2.55;;;;;;;3.58;64.94;94417.47;5001710;28;20211;-65
2022/04/18 03:05:36;;;;;;;2.53;2.33;;;;;;;3.75;64.44;94418.56;5018815;28;20202;-66
2022/04/18 03:08:05;;;;;;;1.80;1.70;;;;;;;3.64;64.07;94420.84;5019008;28;20199;-66
2022/04/18 03:13:19;;;;;;;3.63;2.15;;;;;;;3.69;64.52;94408.97;5001873;28;20622;-66
2022/04/18 03:15:47;;;;;;;2.10;1.70;;;;;;;3.76;64.05;94417.44;5017974;28;20199;-66
2022/04/18 03:18:16;;;;;;;1.83;1.73;;;;;;;3.76;63.94;94411.97;5018666;28;20206;-66
2022/04/18 03:20:44;;;;;;;1.80;1.70;;;;;;;3.83;63.92;94417.75;5010594;28;20239;-68
2022/04/18 03:23:11;;;;;;;1.75;1.65;;;;;;;3.92;63.71;94417.69;4998305;28;20445;-64
2022/04/18 03:25:40;;;;;;;1.60;1.50;;;;;;;3.90;63.33;94418.03;4981667;28;20598;-64
2022/04/18 03:28:09;;;;;;;1.77;1.67;;;;;;;3.88;63.31;94414.81;4981833;28;20196;-64
2022/04/18 03:30:36;;;;;;;3.63;3.33;;;;;;;3.79;63.56;94412.13;4998715;28;20196;-64
2022/04/18 03:33:04;;;;;;;3.85;3.55;;;;;;;3.86;63.30;94423.34;4981717;28;20203;-64
2022/04/18 03:35:34;;;;;;;2.70;2.50;;;;;;;3.86;63.33;94423.34;4998822;28;20200;-64
2022/04/18 03:40:48;;;;;;;1.75;1.65;;;;;;;3.90;63.08;94425.44;4998654;28;20195;-64
2022/04/18 03:43:16;;;;;;;1.80;1.70;;;;;;;3.85;63.07;94420.97;4981802;28;20208;-64
2022/04/18 03:45:43;;;;;;;2.05;1.80;;;;;;;3.80;63.24;94413.72;4981173;28;20208;-64
2022/04/18 03:48:11;;;;;;;2.20;2.10;;;;;;;3.72;63.57;94417.28;4981588;28;20199;-64
2022/04/18 03:50:39;;;;;;;1.70;1.60;;;;;;;3.81;63.55;94420.81;4980405;28;20208;-68
2022/04/18 03:53:07;;;;;;;1.90;1.80;;;;;;;3.77;63.01;94414.38;4997319;28;20448;-72
2022/04/18 03:55:34;;;;;;;2.28;2.08;;;;;;;3.71;63.63;94418.44;4998562;28;20207;-64
2022/04/18 03:58:02;;;;;;;2.00;1.90;;;;;;;3.72;63.64;94420.00;4997304;28;20203;-66
2022/04/18 04:00:31;;;;;;;2.40;2.20;;;;;;;3.66;63.52;94415.84;4997797;28;20258;-67
2022/04/18 04:02:59;;;;;;;3.30;2.60;;;;;;;3.74;63.60;94416.94;4998508;28;20219;-70
2022/04/18 04:05:29;;;;;;;3.50;3.30;;;;;;;3.82;63.07;94419.66;4981291;28;20290;-70
2022/04/18 04:07:59;;;;;;;4.38;4.05;;;;;;;3.78;63.37;94417.94;4998982;28;20188;-68
2022/04/18 04:10:28;;;;;;;3.20;2.90;;;;;;;3.77;63.58;94429.94;4998418;28;20188;-65
2022/04/18 04:12:54;;;;;;;3.58;3.28;;;;;;;3.89;63.21;94421.91;4998665;28;20275;-65
2022/04/18 04:15:22;;;;;;;3.60;3.30;;;;;;;3.89;62.82;94419.19;4998543;28;20195;-66
2022/04/18 04:17:51;;;;;;;4.60;4.30;;;;;;;3.83;63.10;94420.47;4998688;28;20187;-66
2022/04/18 04:20:21;;;;;;;4.10;3.80;;;;;;;3.80;63.68;94419.19;4986082;28;20306;-65
2022/04/18 04:22:51;;;;;;;4.57;4.18;;;;;;;3.91;63.38;94421.56;5017451;28;20222;-65
2022/04/18 04:25:23;;;;;;;2.75;2.55;;;;;;;3.96;63.21;94424.09;5017325;28;20237;-65
2022/04/18 04:27:50;;;;;;;3.28;3.08;;;;;;;4.00;63.03;94422.34;5017403;28;20234;-65
2022/04/18 04:30:18;;;;;;;3.63;3.33;;;;;;;3.91;62.84;94419.63;5018231;28;20658;-66
2022/04/18 04:32:48;;;;;;;4.97;4.57;;;;;;;3.89;62.97;94421.91;5017430;28;20665;-65
2022/04/18 04:35:16;;;;;;;8.82;8.02;;;;;;;3.78;62.80;94429.63;5016634;28;20213;-65
2022/04/18 04:37:47;;;;;;;12.00;11.07;;;;;;;3.58;64.03;94424.88;5000442;28;20544;-65
2022/04/18 04:40:17;;;;;;;14.35;13.45;;;;;;;3.45;64.27;94425.84;5017853;28;20206;-67
2022/04/18 04:42:47;;;;;;;18.75;17.50;;;;;;;3.30;64.45;94438.84;5000458;28;20243;-67
2022/04/18 04:45:15;;;;;;;13.63;12.63;;;;;;;3.21;65.04;94445.44;5000436;28;20195;-66
2022/04/18 04:47:44;;;;;;;11.75;10.85;;;;;;;3.36;64.86;94440.28;5000000;28;20203;-66
2022/04/18 04:50:12;;;;;;;4.55;4.25;;;;;;;3.45;64.39;94445.75;5016581;28;20230;-67
2022/04/18 04:52:40;;;;;;;4.10;3.80;;;;;;;3.47;64.15;94437.25;5017807;28;20187;-67
2022/04/18 04:55:08;;;;;;;3.70;3.40;;;;;;;3.26;64.62;94432.44;5017074;28;20222;-67
2022/04/18 04:57:37;;;;;;;3.75;3.45;;;;;;;3.29;64.90;94431.00;5000596;28;20203;-67
2022/04/18 05:00:10;;;;;;;3.85;3.50;;;;;;;3.28;64.78;94435.66;5001046;28;20199;-66
2022/04/18 05:02:38;;;;;;;4.10;3.80;;;;;;;3.37;64.69;94430.19;5016772;28;20230;-67
2022/04/18 05:05:06;;;;;;;4.40;4.10;;;;;;;3.46;64.14;94444.63;5017569;28;20209;-67
2022/04/18 05:07:34;;;;;;;7.75;7.25;;;;;;;3.30;64.17;94433.41;5000762;28;20191;-67
2022/04/18 05:10:02;;;;;;;25.48;23.52;;;;;;;3.13;64.86;94439.69;5000495;28;20211;-66
2022/04/18 05:12:32;;;;;;;14.00;12.90;;;;;;;3.10;64.64;94437.59;5017918;28;20197;-66
2022/04/18 05:15:03;;;;;;;15.50;14.10;;;;;;;2.92;65.44;94432.47;5017647;28;20219;-67
2022/04/18 05:17:36;;;;;;;13.93;12.77;;;;;;;3.04;65.42;94438.06;5017827;28;20191;-67
2022/04/18 05:20:04;;;;;;;8.25;7.65;;;;;;;3.04;65.15;94438.06;5000251;28;20266;-67
2022/04/18 05:22:36;;;;;;;6.40;5.90;;;;;;;3.12;64.97;94440.81;5000079;28;20219;-67
2022/04/18 05:25:04;;;;;;;4.60;4.20;;;;;;;3.16;65.04;94442.88;5017125;28;20597;-67
2022/04/18 05:27:31;;;;;;;5.32;4.93;;;;;;;3.17;65.13;94449.94;5017362;28;20210;-67
2022/04/18 05:30:01;;;;;;;3.88;3.58;;;;;;;3.15;64.94;94442.06;5016512;28;20213;-66
2022/04/18 05:32:29;;;;;;;3.80;3.50;;;;;;;3.33;64.82;94442.84;5017204;28;20210;-66
2022/04/18 05:35:00;;;;;;;4.47;4.10;;;;;;;3.50;64.67;94448.28;5000247;28;20199;-66
2022/04/18 05:37:27;;;;;;;4.18;3.78;;;;;;;3.56;64.06;94457.91;4999823;28;20241;-66
2022/04/18 05:39:54;;;;;;;5.28;4.78;;;;;;;3.66;63.76;94459.50;5016037;28;20211;-67
2022/04/18 05:42:24;;;;;;;4.10;3.80;;;;;;;3.67;63.90;94450.19;5015934;28;20223;-66
2022/04/18 05:44:51;;;;;;;4.18;3.88;;;;;;;3.56;64.13;94451.66;5016346;28;20202;-66
2022/04/18 05:47:19;;;;;;;4.15;3.85;;;;;;;3.56;64.01;94448.94;5016579;28;20210;-66
2022/04/18 05:49:48;;;;;;;4.10;3.75;;;;;;;3.63;63.91;94449.22;5017061;28;20606;-67
2022/04/18 05:52:17;;;;;;;6.43;4.75;;;;;;;3.62;64.07;94448.44;5015468;28;20195;-67
2022/04/18 05:54:45;;;;;;;3.70;3.38;;;;;;;3.61;63.38;94456.94;5017384;28;20195;-67
2022/04/18 05:57:12;;;;;;;3.63;3.33;;;;;;;3.62;63.67;94451.16;5016333;28;20203;-67
2022/04/18 05:59:40;;;;;;;4.22;3.85;;;;;;;3.55;63.14;94461.75;5016852;28;20202;-66
2022/04/18 06:02:08;;;;;;;3.60;3.30;;;;;;;3.62;63.65;94453.88;5015759;28;20223;-66
2022/04/18 06:04:36;;;;;;;3.60;3.30;;;;;;;3.82;63.20;94462.53;5016901;28;20193;-66
2022/04/18 06:07:05;;;;;;;3.50;3.20;;;;;;;3.89;62.72;94472.94;5016540;28;20213;-67
2022/04/18 06:09:35;;;;;;;3.00;2.80;;;;;;;3.80;62.96;94471.00;5016688;28;20179;-67
2022/04/18 06:12:03;;;;;;;4.88;4.47;;;;;;;3.91;63.55;94457.81;5016444;28;20207;-67
2022/04/18 06:14:31;;;;;;;4.13;3.83;;;;;;;3.96;63.10;94465.84;5016143;28;20199;-67
2022/04/18 06:16:59;;;;;;;6.20;5.70;;;;;;;3.73;63.58;94469.91;5016883;28;20201;-67
2022/04/18 06:19:26;;;;;;;12.23;11.13;;;;;;;3.81;63.88;94466.34;5000615;28;20224;-67
2022/04/18 06:21:54;;;;;;;10.13;9.35;;;;;;;4.06;62.89;94467.41;5016448;28;20238;-67
2022/04/18 06:24:23;;;;;;;10.05;9.20;;;;;;;4.19;63.27;94465.63;5016256;28;20198;-67
2022/04/18 06:26:57;;;;;;;8.20;7.40;;;;;;;4.28;63.33;94467.16;5016101;28;20603;-67
2022/04/18 06:29:25;;;;;;;7.30;6.70;;;;;;;4.37;62.86;94463.63;4999760;28;20206;-67
2022/04/18 06:31:53;;;;;;;6.40;5.97;;;;;;;4.31;62.57;94461.03;4999620;28;20203;-67
2022/04/18 06:34:22;;;;;;;3.60;3.30;;;;;;;4.17;62.41;94465.13;5016316;28;20555;-67
2022/04/18 06:36:50;;;;;;;2.90;2.70;;;;;;;3.99;63.06;94467.13;4999818;28;20199;-67
2022/04/18 06:39:18;;;;;;;3.97;3.67;;;;;;;3.97;62.63;94469.38;5015896;28;20215;-67
2022/04/18 06:41:45;;;;;;;3.30;3.10;;;;;;;3.93;63.01;94468.44;4999494;28;20206;-67
2022/04/18 06:44:18;;;;;;;3.72;3.22;;;;;;;4.10;63.19;94466.44;5016516;28;20191;-66
2022/04/18 06:46:47;;;;;;;4.60;4.25;;;;;;;4.12;63.48;94468.03;4999764;28;20206;-67
2022/04/18 06:49:13;;;;;;;4.80;4.40;;;;;;;4.20;63.70;94470.72;5016101;28;20216;-67
2022/04/18 06:51:42;;;;;;;5.22;4.00;;;;;;;4.29;63.77;94468.00;5016488;28;20190;-67
2022/04/18 06:54:10;;;;;;;3.45;3.13;;;;;;;4.38;63.37;94465.22;4999032;28;20217;-67
2022/04/18 06:59:27;;;;;;;5.05;4.65;;;;;;;4.63;63.55;94468.94;4999406;28;20187;-67
2022/04/18 07:01:54;;;;;;;3.20;2.90;;;;;;;4.57;62.61;94474.59;5016678;28;20437;-67
2022/04/18 07:04:22;;;;;;;4.18;3.63;;;;;;;4.57;62.86;94474.59;4983324;28;20288;-67
2022/04/18 07:06:50;;;;;;;4.07;3.67;;;;;;;4.64;62.41;94481.47;5016359;28;20192;-66
2022/04/18 07:09:19;;;;;;;3.33;3.10;;;;;;;4.29;62.50;94479.69;5015944;28;20206;-67
2022/04/18 07:11:48;;;;;;;3.15;2.95;;;;;;;4.01;63.74;94476.59;5017046;28;20214;-67
2022/04/18 07:14:17;;;;;;;4.68;4.28;;;;;;;4.09;63.92;94475.75;5016219;28;20197;-67
2022/04/18 07:16:46;;;;;;;4.72;4.32;;;;;;;4.02;64.55;94480.91;4999634;28;20191;-67
2022/04/18 07:19:14;;;;;;;6.70;5.82;;;;;;;4.23;64.24;94480.22;4998565;28;20214;-67
2022/04/18 07:21:45;;;;;;;5.00;4.60;;;;;;;4.34;63.69;94476.78;5016328;28;20231;-67
2022/04/18 07:24:16;;;;;;;5.32;4.82;;;;;;;4.47;63.52;94480.44;4998548;28;20280;-67
2022/04/18 07:26:46;;;;;;;4.38;3.97;;;;;;;4.42;62.45;94479.81;5020158;28;20249;-67
2022/04/18 07:29:16;;;;;;;4.25;3.72;;;;;;;4.33;63.34;94474.38;5018652;28;20207;-67
2022/04/18 07:31:48;;;;;;;4.03;3.72;;;;;;;4.45;63.13;94477.22;5019029;28;20195;-67
2022/04/18 07:34:19;;;;;;;4.43;4.07;;;;;;;4.42;64.31;94471.59;5002775;28;20505;-67
2022/04/18 07:36:50;;;;;;;5.80;5.28;;;;;;;4.58;63.71;94483.59;5003181;28;20265;-67
2022/04/18 07:39:18;;;;;;;3.42;3.08;;;;;;;4.48;62.27;94473.84;5020004;28;20202;-67
2022/04/18 07:41:47;;;;;;;4.05;3.72;;;;;;;4.38;62.79;94485.13;5019908;28;20385;-67
2022/04/18 07:44:13;;;;;;;3.95;3.65;;;;;;;4.30;63.27;94484.03;5002092;28;20226;-67
2022/04/18 07:46:42;;;;;;;4.78;4.43;;;;;;;4.31;63.84;94482.88;5019489;28;20191;-67
2022/04/18 07:49:14;;;;;;;6.95;6.35;;;;;;;4.51;63.56;94486.84;5019399;28;20566;-67
2022/04/18 07:51:44;;;;;;;3.92;3.63;;;;;;;4.38;62.92;94493.31;5018766;28;20214;-67
2022/04/18 07:54:14;;;;;;;3.10;2.80;;;;;;;4.29;62.38;94498.81;5019179;28;20195;-67
2022/04/18 07:56:43;;;;;;;3.70;3.40;;;;;;;4.10;62.25;94495.66;5018971;28;20266;-67
2022/04/18 07:59:14;;;;;;;3.83;3.53;;;;;;;4.19;62.56;94506.56;5002359;28;20246;-67
2022/04/18 08:01:43;;;;;;;4.13;3.55;;;;;;;4.20;62.84;94489.84;5002694;28;20276;-67
2022/04/18 08:04:15;;;;;;;3.38;3.08;;;;;;;4.19;62.93;94496.44;5018483;28;20536;-67
2022/04/18 08:06:44;;;;;;;4.47;4.07;;;;;;;4.30;63.17;94484.03;5019109;28;20198;-68
2022/04/18 08:09:15;;;;;;;4.13;3.70;;;;;;;4.32;62.87;94484.50;5018697;28;20199;-67
2022/04/18 08:11:43;;;;;;;3.92;3.50;;;;;;;4.29;63.38;94489.81;5019336;28;20201;-67
2022/04/18 08:14:14;;;;;;;4.75;4.38;;;;;;;4.43;62.86;94484.94;5019106;28;20519;-67
2022/04/18 08:16:43;;;;;;;5.55;5.05;;;;;;;4.53;61.88;94494.69;5018529;28;20222;-67
2022/04/18 08:19:14;;;;;;;4.90;4.50;;;;;;;4.66;62.29;94487.41;5017708;28;20211;-67
2022/04/18 08:21:43;;;;;;;5.95;4.80;;;;;;;4.85;62.49;94485.03;5003489;28;20328;-67
2022/04/18 08:24:10;;;;;;;6.10;4.30;;;;;;;4.90;61.79;94484.03;4982215;28;20216;-67
2022/04/18 08:26:38;;;;;;;5.32;4.82;;;;;;;4.91;60.78;94491.94;4998729;28;20195;-67
2022/04/18 08:29:07;;;;;;;5.05;4.55;;;;;;;4.85;60.75;94492.44;4997781;28;20203;-67
2022/04/18 08:31:36;;;;;;;7.03;6.32;;;;;;;4.88;60.90;94484.38;4982600;28;20187;-67
2022/04/18 08:34:04;;;;;;;5.28;4.78;;;;;;;4.99;60.57;94484.81;4998661;28;20184;-67
2022/04/18 08:36:34;;;;;;;4.75;4.35;;;;;;;4.89;59.68;94494.19;4981201;28;20250;-67
2022/04/18 08:39:01;;;;;;;4.80;4.40;;;;;;;4.95;60.28;94486.59;4981600;28;20196;-67
2022/04/18 08:41:35;;;;;;;8.90;8.10;;;;;;;4.96;60.49;94482.72;4999063;28;20206;-66
2022/04/18 08:44:04;;;;;;;4.30;4.00;;;;;;;4.68;60.54;94496.06;4981369;28;20219;-67
2022/04/18 08:46:32;;;;;;;7.93;6.80;;;;;;;4.71;61.81;94492.66;4981654;28;20543;-67
2022/04/18 08:54:38;;;;;;;3.92;3.63;;;;;;;4.63;59.57;94499.00;4998202;28;20263;-67
2022/04/18 08:57:07;;;;;;;3.90;3.60;;;;;;;4.63;60.25;94502.53;4981556;28;20208;-67
2022/04/18 08:59:35;;;;;;;3.20;2.90;;;;;;;4.34;60.58;94495.88;4997603;28;20527;-67
2022/04/18 09:02:05;;;;;;;3.35;2.90;;;;;;;4.31;60.12;94495.75;4996909;28;20211;-67
2022/04/18 09:04:32;;;;;;;3.10;2.90;;;;;;;4.40;60.94;94485.59;4980553;28;20218;-67
2022/04/18 09:07:11;;;;;;;2.25;2.15;;;;;;;4.33;60.43;94491.56;4998091;28;20200;-67
2022/04/18 09:09:38;;;;;;;2.40;2.28;;;;;;;4.36;60.82;94487.38;4980874;28;20200;-67
2022/04/18 09:12:19;;;;;;;3.17;2.97;;;;;;;4.40;61.08;94491.06;4997911;28;20196;-67
2022/04/18 09:14:50;;;;;;;3.03;2.50;;;;;;;4.62;60.71;94484.53;4998075;28;20196;-66
2022/04/18 09:17:35;;;;;;;3.50;3.20;;;;;;;4.80;60.30;94487.97;4996841;28;20612;-67
2022/04/18 09:20:08;;;;;;;4.47;3.97;;;;;;;4.95;60.38;94473.72;4997816;28;20212;-67
2022/04/18 09:22:45;;;;;;;5.78;4.90;;;;;;;5.03;59.11;94481.06;5017519;28;20261;-67
2022/04/18 09:25:16;;;;;;;4.68;4.28;;;;;;;5.05;58.45;94472.56;5000507;28;20198;-67
2022/04/18 09:27:50;;;;;;;4.50;4.15;;;;;;;5.11;59.01;94481.34;5017476;28;20557;-68
2022/04/18 09:30:19;;;;;;;5.72;5.13;;;;;;;5.25;58.84;94469.00;5017375;28;20187;-67
2022/04/18 09:32:56;;;;;;;4.50;4.10;;;;;;;5.25;57.83;94476.41;5017590;28;20276;-67
2022/04/18 09:35:28;;;;;;;2.20;2.10;;;;;;;5.12;57.85;94475.56;5000635;28;20203;-67
2022/04/18 09:38:01;;;;;;;2.50;2.30;;;;;;;5.13;57.88;94470.88;5017384;28;20214;-67
2022/04/18 09:40:34;;;;;;;2.85;2.40;;;;;;;5.12;57.67;94470.09;5000397;28;20202;-67
2022/04/18 09:43:01;;;;;;;4.00;2.88;;;;;;;5.23;57.80;94471.28;5017406;28;20214;-67
2022/04/18 09:45:28;;;;;;;5.57;4.93;;;;;;;5.34;58.66;94479.06;5017530;28;20193;-67
2022/04/18 09:47:55;;;;;;;2.53;2.33;;;;;;;5.30;57.41;94474.28;5000380;28;20199;-67
2022/04/18 09:53:18;;;;;;;7.30;6.50;;;;;;;5.44;57.20;94462.25;5000095;28;20203;-66
2022/04/18 09:55:47;;;;;;;5.38;4.88;;;;;;;5.48;55.58;94466.75;5017293;28;20180;-67
2022/04/18 09:58:15;;;;;;;5.75;5.35;;;;;;;5.51;55.48;94462.50;5015886;28;20203;-67
2022/04/18 10:00:44;;;;;;;8.10;7.13;;;;;;;5.58;56.10;94459.25;5016800;28;20203;-67
2022/04/18 10:03:13;;;;;;;6.22;5.65;;;;;;;5.62;55.90;94455.50;5017728;28;20305;-67
2022/04/18 10:05:41;;;;;;;4.18;3.83;;;;;;;5.51;56.90;94448.84;5017090;28;20187;-67
2022/04/18 10:08:09;;;;;;;3.25;2.95;;;;;;;5.54;56.49;94451.72;5017035;28;20191;-67
2022/04/18 10:10:40;;;;;;;5.70;5.18;;;;;;;5.62;57.12;94454.69;5017002;28;20203;-67
2022/04/18 10:13:09;;;;;;;3.55;3.25;;;;;;;5.46;56.40;94449.06;5017138;28;20273;-67
2022/04/18 10:15:39;;;;;;;3.08;2.78;;;;;;;5.47;57.19;94456.91;4999852;28;20199;-67
2022/04/18 10:18:09;;;;;;;2.55;2.30;;;;;;;5.58;57.56;94448.31;5016811;28;20718;-67
2022/04/18 10:20:53;;;;;;;5.45;5.00;;;;;;;5.63;57.20;94442.59;5017296;28;20243;-67
2022/04/18 10:23:40;;;;;;;4.78;4.38;;;;;;;5.57;56.44;94443.97;5016166;28;20226;-67
2022/04/18 10:26:47;;;;;;;2.70;2.50;;;;;;;5.39;55.10;94438.66;5016424;28;20202;-67
2022/04/18 10:29:20;;;;;;;1.80;1.70;;;;;;;5.40;55.96;94439.44;4973621;28;20213;-67
2022/04/18 10:31:48;;;;;;;2.50;2.30;;;;;;;5.52;56.39;94442.25;5015993;28;20210;-67
2022/04/18 10:34:16;;;;;;;2.85;2.65;;;;;;;5.63;57.03;94437.13;4999551;28;20199;-67
2022/04/18 10:36:48;;;;;;;6.85;6.20;;;;;;;5.80;57.74;94442.44;5015560;28;20207;-67
2022/04/18 10:39:17;;;;;;;10.15;9.30;;;;;;;5.90;57.42;94435.75;4999513;28;20245;-67
2022/04/18 10:41:47;;;;;;;8.82;7.80;;;;;;;5.83;57.52;94436.31;5016698;28;20206;-67
2022/04/18 10:44:16;;;;;;;6.88;6.28;;;;;;;5.89;57.46;94439.63;5016368;28;20587;-67
2022/04/18 10:47:03;;;;;;;4.80;4.30;;;;;;;5.93;57.62;94443.31;5016949;28;20187;-67
2022/04/18 10:49:33;;;;;;;6.07;5.47;;;;;;;5.82;57.03;94437.44;5016190;28;20207;-67
2022/04/18 10:52:08;;;;;;;3.85;3.50;;;;;;;5.44;57.50;94437.63;4999077;28;20217;-67
2022/04/18 10:54:36;;;;;;;4.35;4.05;;;;;;;5.31;57.84;94437.59;5015358;28;20248;-67
2022/04/18 10:57:11;;;;;;;3.92;3.63;;;;;;;5.27;57.87;94441.34;4999671;28;20294;-67
2022/04/18 10:59:42;;;;;;;5.82;5.32;;;;;;;5.34;58.25;94436.13;5016898;28;20187;-67
2022/04/18 11:02:38;;;;;;;10.00;9.00;;;;;;;5.47;57.33;94436.97;5019210;28;20203;-67
2022/04/18 11:05:07;;;;;;;8.23;7.50;;;;;;;5.50;57.06;94436.31;5003549;28;20231;-67
2022/04/18 11:07:39;;;;;;;7.25;6.65;;;;;;;5.61;57.01;94433.97;5019328;28;20207;-67
2022/04/18 11:10:19;;;;;;;4.47;4.18;;;;;;;5.63;55.74;94426.19;5018935;28;20291;-67
2022/04/18 11:12:47;;;;;;;7.18;6.50;;;;;;;5.69;55.97;94425.66;5019716;28;20195;-67
2022/04/18 11:15:17;;;;;;;4.65;4.25;;;;;;;5.73;55.91;94431.25;5025331;28;20224;-67
2022/04/18 11:17:45;;;;;;;2.45;2.25;;;;;;;5.69;54.82;94425.66;5039822;28;20244;-67
2022/04/18 11:20:28;;;;;;;3.10;2.50;;;;;;;5.75;55.26;94426.25;5022402;28;20242;-67
2022/04/18 11:23:19;;;;;;;4.43;2.50;;;;;;;5.79;55.04;94425.22;5022760;28;20194;-67
2022/04/18 11:25:57;;;;;;;2.80;2.00;;;;;;;5.86;54.46;94421.16;5039607;28;20529;-67
2022/04/18 11:28:33;;;;;;;2.20;2.00;;;;;;;5.93;54.15;94422.22;5039733;28;20186;-67
2022/04/18 11:31:02;;;;;;;2.10;2.00;;;;;;;5.95;53.81;94414.44;5022808;28;20209;-67
2022/04/18 11:33:28;;;;;;;2.05;1.88;;;;;;;5.98;53.58;94413.78;5022388;28;20202;-67
2022/04/18 11:36:02;;;;;;;1.92;1.83;;;;;;;6.05;53.37;94418.69;5039755;28;20202;-67
2022/04/18 11:38:30;;;;;;;2.15;1.83;;;;;;;6.13;53.35;94422.47;5023139;28;20293;-68
2022/04/18 11:41:00;;;;;;;1.90;1.80;;;;;;;6.17;51.96;94415.16;5022150;28;20197;-67
2022/04/18 11:43:30;;;;;;;2.17;1.95;;;;;;;6.20;52.18;94417.22;5021868;28;20205;-67
2022/04/18 11:46:07;;;;;;;2.67;1.73;;;;;;;6.22;52.77;94413.03;5039002;28;20185;-67
2022/04/18 11:48:36;;;;;;;1.58;1.48;;;;;;;6.26;51.28;94407.66;5038483;28;20198;-67
2022/04/18 11:51:05;;;;;;;1.75;1.35;;;;;;;6.26;52.03;94411.19;5039447;28;20602;-67
2022/04/18 11:53:36;;;;;;;1.55;1.48;;;;;;;6.30;51.15;94405.84;5022356;28;20194;-68
2022/04/18 11:56:06;;;;;;;1.60;1.50;;;;;;;6.31;52.16;94415.63;5021882;28;20260;-67
2022/04/18 11:58:40;;;;;;;3.75;3.45;;;;;;;6.31;50.77;94412.09;5039645;28;20190;-67
2022/04/18 12:06:50;;;;;;;2.50;2.30;;;;;;;6.35;52.20;94397.38;5022554;28;20190;-67
2022/04/18 12:09:21;;;;;;;2.65;2.45;;;;;;;6.42;51.76;94394.88;5039011;28;20186;-67
2022/04/18 12:11:49;;;;;;;2.22;2.13;;;;;;;6.44;51.64;94391.81;5038211;28;20194;-67
2022/04/18 12:14:23;;;;;;;1.73;1.60;;;;;;;6.49;52.39;94386.09;5038936;28;20200;-67
2022/04/18 12:16:52;;;;;;;2.00;1.90;;;;;;;6.53;52.58;94391.69;5021424;28;20194;-67
2022/04/18 12:19:20;;;;;;;2.13;2.03;;;;;;;6.51;52.20;94387.34;5021445;28;20276;-66